createdAt,value
2022-09-21T00:00:55.515Z,68.50
2022-09-21T00:03:45.512Z,68.50
2022-09-21T00:06:37.370Z,68.60
2022-09-21T00:09:25.882Z,68.60
2022-09-21T00:12:14.642Z,68.70
2022-09-21T00:15:02.798Z,68.70
2022-09-21T00:17:55.179Z,68.70
2022-09-21T00:20:44.113Z,68.80
2022-09-21T00:23:35.318Z,68.80
2022-09-21T00:26:25.735Z,68.80
2022-09-21T00:29:14.681Z,68.90
2022-09-21T00:32:03.348Z,69.00
2022-09-21T00:34:51.673Z,69.00
2022-09-21T00:37:40.173Z,69.00
2022-09-21T00:40:30.193Z,69.00
2022-09-21T00:43:18.873Z,69.00
2022-09-21T00:46:15.034Z,69.10
2022-09-21T00:49:03.259Z,69.20
2022-09-21T00:51:53.310Z,69.10
2022-09-21T00:54:46.650Z,69.20
2022-09-21T00:57:37.495Z,69.20
2022-09-21T01:00:25.925Z,69.20
2022-09-21T01:03:15.109Z,69.20
2022-09-21T01:06:04.290Z,69.30
2022-09-21T01:08:56.087Z,69.30
2022-09-21T01:11:49.694Z,69.40
2022-09-21T01:15:00.695Z,69.40
2022-09-21T01:17:58.881Z,69.40
2022-09-21T01:21:26.627Z,69.40
2022-09-21T01:24:24.567Z,69.40
2022-09-21T01:27:46.144Z,69.50
2022-09-21T01:30:38.807Z,69.50
2022-09-21T01:33:30.576Z,69.50
2022-09-21T01:36:25.133Z,69.60
2022-09-21T01:39:16.163Z,69.60
2022-09-21T01:42:07.041Z,69.50
2022-09-21T01:44:59.837Z,69.60
2022-09-21T01:47:52.804Z,69.80
2022-09-21T01:50:50.138Z,69.70
2022-09-21T01:53:43.686Z,69.70
2022-09-21T01:56:36.743Z,69.80
2022-09-21T01:59:33.063Z,69.80
2022-09-21T02:02:26.909Z,69.90
2022-09-21T02:05:20.374Z,69.90
2022-09-21T02:08:10.341Z,69.90
2022-09-21T02:11:00.411Z,69.90
2022-09-21T02:13:52.386Z,69.90
2022-09-21T02:16:45.686Z,70.00
2022-09-21T02:19:44.623Z,70.00
2022-09-21T02:22:41.057Z,70.10
2022-09-21T02:25:38.602Z,70.10
2022-09-21T02:28:36.641Z,70.10
2022-09-21T02:31:31.627Z,70.10
2022-09-21T02:34:26.033Z,70.20
2022-09-21T02:37:23.288Z,70.10
2022-09-21T02:40:23.172Z,70.20
2022-09-21T02:43:17.038Z,70.20
2022-09-21T02:46:11.783Z,70.20
2022-09-21T02:49:02.564Z,70.30
2022-09-21T02:51:55.082Z,70.30
2022-09-21T02:54:48.399Z,70.40
2022-09-21T02:57:39.269Z,70.40
2022-09-21T03:00:27.728Z,70.40
2022-09-21T03:03:18.527Z,70.50
2022-09-21T03:06:07.600Z,70.50
2022-09-21T03:08:58.745Z,70.50
2022-09-21T03:11:47.027Z,70.60
2022-09-21T03:14:36.859Z,70.60
2022-09-21T03:17:25.736Z,70.60
2022-09-21T03:20:14.375Z,70.60
2022-09-21T03:23:03.317Z,70.60
2022-09-21T03:25:52.546Z,70.70
2022-09-21T03:28:41.402Z,70.70
2022-09-21T03:31:31.686Z,70.80
2022-09-21T03:34:20.787Z,70.80
2022-09-21T03:37:10.559Z,70.80
2022-09-21T03:40:00.368Z,70.80
2022-09-21T03:42:48.363Z,70.80
2022-09-21T03:45:38.033Z,70.80
2022-09-21T03:48:27.933Z,70.80
2022-09-21T03:51:16.554Z,70.90
2022-09-21T03:54:04.976Z,70.90
2022-09-21T03:56:53.578Z,70.90
2022-09-21T03:59:42.360Z,70.90
2022-09-21T04:02:31.015Z,70.90
2022-09-21T04:05:21.047Z,71.00
2022-09-21T04:08:09.794Z,71.00
2022-09-21T04:10:58.324Z,71.10
2022-09-21T04:13:52.404Z,71.10
2022-09-21T04:16:40.508Z,71.10
2022-09-21T04:19:28.884Z,71.10
2022-09-21T04:22:18.999Z,71.10
2022-09-21T04:25:08.102Z,71.20
2022-09-21T04:27:56.524Z,71.20
2022-09-21T04:30:45.263Z,71.20
2022-09-21T04:33:33.576Z,71.20
2022-09-21T04:36:22.962Z,71.20
2022-09-21T04:39:12.871Z,71.20
2022-09-21T04:42:01.673Z,71.30
2022-09-21T04:44:50.283Z,71.30
2022-09-21T04:47:38.518Z,71.30
2022-09-21T04:50:27.263Z,71.30
2022-09-21T04:53:24.809Z,71.30
2022-09-21T04:56:16.858Z,71.90
2022-09-21T04:59:05.823Z,71.90
2022-09-21T05:01:54.383Z,71.40
2022-09-21T05:04:42.550Z,71.40
2022-09-21T05:07:31.284Z,71.40
2022-09-21T05:10:18.872Z,71.40
2022-09-21T05:13:08.667Z,71.50
2022-09-21T05:15:56.995Z,71.40
2022-09-21T05:18:45.754Z,71.50
2022-09-21T05:21:34.097Z,72.10
2022-09-21T05:24:22.496Z,71.50
2022-09-21T05:27:11.546Z,71.40
2022-09-21T05:30:02.115Z,71.30
2022-09-21T05:32:58.106Z,71.50
2022-09-21T05:35:59.830Z,71.50
2022-09-21T05:38:48.757Z,71.40
2022-09-21T05:41:37.950Z,71.40
2022-09-21T05:44:27.227Z,71.40
2022-09-21T05:47:26.405Z,71.50
2022-09-21T05:50:25.390Z,71.50
2022-09-21T05:53:27.188Z,72.20
2022-09-21T05:56:25.601Z,71.60
2022-09-21T05:59:32.742Z,71.60
2022-09-21T06:02:32.656Z,71.80
2022-09-21T06:05:22.126Z,71.80
2022-09-21T06:08:10.801Z,71.90
2022-09-21T06:10:59.655Z,71.90
2022-09-21T06:13:47.917Z,72.00
2022-09-21T06:16:39.942Z,72.10
2022-09-21T06:19:29.508Z,72.10
2022-09-21T06:22:17.975Z,72.10
2022-09-21T06:25:07.503Z,72.20
2022-09-21T06:27:56.024Z,72.20
2022-09-21T06:30:45.213Z,72.20
2022-09-21T06:33:36.047Z,72.30
2022-09-21T06:36:28.604Z,72.30
2022-09-21T06:39:16.828Z,72.30
2022-09-21T06:42:05.235Z,72.60
2022-09-21T06:44:53.849Z,64.90
2022-09-21T06:47:48.383Z,61.80
2022-09-21T06:50:36.955Z,60.70
2022-09-21T06:53:27.060Z,60.00
2022-09-21T06:56:16.155Z,61.30
2022-09-21T06:59:04.434Z,60.30
2022-09-21T07:01:55.912Z,61.00
2022-09-21T07:04:44.721Z,60.10
2022-09-21T07:07:33.496Z,60.50
2022-09-21T07:10:23.162Z,60.40
2022-09-21T07:13:11.387Z,60.60
2022-09-21T07:15:59.723Z,60.60
2022-09-21T07:18:49.220Z,60.80
2022-09-21T07:21:37.626Z,60.50
2022-09-21T07:24:26.248Z,60.80
2022-09-21T07:27:15.658Z,60.70
2022-09-21T07:30:05.003Z,60.90
2022-09-21T07:32:53.358Z,60.90
2022-09-21T07:35:41.791Z,61.00
2022-09-21T07:38:30.289Z,61.00
2022-09-21T07:41:18.735Z,61.10
2022-09-21T07:44:08.572Z,61.40
2022-09-21T07:46:57.497Z,61.60
2022-09-21T07:49:47.181Z,61.10
2022-09-21T07:52:35.828Z,61.20
2022-09-21T07:55:24.469Z,60.80
2022-09-21T07:58:30.378Z,60.70
2022-09-21T08:01:20.159Z,60.40
2022-09-21T08:04:10.655Z,60.10
2022-09-21T08:06:59.367Z,60.60
2022-09-21T08:09:51.091Z,61.20
2022-09-21T08:12:40.074Z,61.50
2022-09-21T08:15:47.545Z,61.30
2022-09-21T08:18:40.904Z,61.10
2022-09-21T08:21:29.769Z,64.20
2022-09-21T08:24:18.357Z,65.70
2022-09-21T08:27:08.089Z,66.80
2022-09-21T08:29:56.515Z,67.20
2022-09-21T08:32:51.455Z,67.70
2022-09-21T08:35:41.927Z,67.70
2022-09-21T08:38:35.257Z,68.00
2022-09-21T08:41:26.639Z,67.80
2022-09-21T08:44:19.618Z,67.30
2022-09-21T08:47:13.977Z,66.80
2022-09-21T08:50:04.691Z,62.10
2022-09-21T08:53:00.032Z,61.60
2022-09-21T08:55:48.346Z,61.20
2022-09-21T08:58:40.798Z,60.70
2022-09-21T09:01:41.456Z,60.40
2022-09-21T09:04:42.723Z,60.20
2022-09-21T09:07:59.724Z,60.40
2022-09-21T09:11:03.398Z,60.60
2022-09-21T09:14:16.016Z,61.10
2022-09-21T09:17:21.973Z,61.40
2022-09-21T09:20:16.277Z,61.60
2022-09-21T09:23:10.827Z,61.10
2022-09-21T09:26:04.826Z,61.50
2022-09-21T09:28:56.347Z,61.50
2022-09-21T09:31:45.767Z,61.80
2022-09-21T09:34:37.667Z,62.20
2022-09-21T09:37:32.374Z,62.10
2022-09-21T09:40:32.690Z,61.60
2022-09-21T09:43:32.279Z,61.20
2022-09-21T09:46:29.686Z,61.30
2022-09-21T09:49:29.729Z,61.80
2022-09-21T09:52:18.930Z,62.10
2022-09-21T09:55:20.420Z,62.60
2022-09-21T09:58:17.821Z,62.10
2022-09-21T10:01:07.531Z,62.30
2022-09-21T10:04:07.401Z,62.10
2022-09-21T10:06:56.278Z,61.50
2022-09-21T10:09:44.643Z,61.10
2022-09-21T10:12:32.967Z,60.70
2022-09-21T10:15:24.725Z,60.40
2022-09-21T10:18:21.645Z,60.40
2022-09-21T10:21:16.968Z,60.60
2022-09-21T10:24:08.159Z,61.20
2022-09-21T10:27:03.110Z,62.70
2022-09-21T10:29:51.642Z,63.00
2022-09-21T10:32:40.301Z,63.20
2022-09-21T10:35:30.034Z,63.10
2022-09-21T10:38:22.589Z,63.50
2022-09-21T10:41:13.546Z,63.00
2022-09-21T10:44:01.933Z,64.20
2022-09-21T10:46:51.982Z,64.10
2022-09-21T10:49:47.422Z,64.10
2022-09-21T10:52:40.073Z,64.70
2022-09-21T10:55:30.767Z,65.20
2022-09-21T10:58:19.556Z,65.30
2022-09-21T11:01:22.358Z,65.40
2022-09-21T11:04:14.338Z,65.30
2022-09-21T11:07:10.426Z,65.40
2022-09-21T11:10:11.094Z,65.30
2022-09-21T11:13:17.887Z,65.90
2022-09-21T11:16:15.392Z,65.50
2022-09-21T11:19:14.311Z,65.60
2022-09-21T11:22:07.827Z,65.70
2022-09-21T11:25:08.409Z,65.60
2022-09-21T11:28:01.720Z,65.80
2022-09-21T11:31:11.956Z,65.90
2022-09-21T11:34:21.998Z,66.00
2022-09-21T11:37:20.230Z,66.10
2022-09-21T11:40:24.066Z,66.10
2022-09-21T11:43:24.459Z,66.30
2022-09-21T11:46:24.905Z,66.30
2022-09-21T11:49:37.615Z,66.40
2022-09-21T11:52:42.670Z,66.40
2022-09-21T11:55:58.896Z,66.50
2022-09-21T11:58:55.337Z,66.70
2022-09-21T12:01:59.336Z,66.60
2022-09-21T12:04:51.715Z,66.70
2022-09-21T12:07:59.038Z,66.90
2022-09-21T12:10:59.616Z,67.00
2022-09-21T12:13:53.494Z,67.00
2022-09-21T12:16:48.642Z,67.10
2022-09-21T12:19:44.463Z,67.20
2022-09-21T12:22:36.832Z,67.20
2022-09-21T12:25:27.284Z,67.30
2022-09-21T12:28:22.785Z,67.30
2022-09-21T12:31:17.301Z,67.40
2022-09-21T12:34:12.372Z,67.50
2022-09-21T12:37:09.519Z,67.40
2022-09-21T12:40:04.239Z,67.60
2022-09-21T12:42:59.784Z,67.60
2022-09-21T12:45:54.586Z,67.60
2022-09-21T12:48:45.194Z,67.70
2022-09-21T12:51:35.951Z,67.70
2022-09-21T12:54:36.323Z,67.70
2022-09-21T12:58:04.817Z,67.80
2022-09-21T13:00:53.081Z,67.90
2022-09-21T13:03:52.742Z,67.90
2022-09-21T13:07:08.736Z,68.10
2022-09-21T13:09:57.125Z,68.00
2022-09-21T13:12:48.887Z,68.10
2022-09-21T13:15:45.086Z,68.20
2022-09-21T13:18:37.610Z,68.30
2022-09-21T13:21:29.932Z,68.30
2022-09-21T13:24:27.294Z,68.30
2022-09-21T13:27:16.165Z,68.40
2022-09-21T13:30:21.543Z,68.40
2022-09-21T13:33:32.514Z,68.50
2022-09-21T13:36:37.643Z,68.50
2022-09-21T13:39:26.249Z,68.60
2022-09-21T13:42:50.702Z,68.70
2022-09-21T13:45:54.576Z,68.70
2022-09-21T13:48:43.166Z,68.80
2022-09-21T13:51:34.407Z,68.80
2022-09-21T13:54:25.968Z,68.70
2022-09-21T13:57:21.250Z,69.00
2022-09-21T14:00:31.899Z,69.00
2022-09-21T14:03:24.628Z,69.00
2022-09-21T14:06:16.658Z,69.00
2022-09-21T14:09:08.942Z,69.10
2022-09-21T14:12:02.889Z,69.20
2022-09-21T14:15:26.206Z,69.10
2022-09-21T14:18:36.814Z,69.20
2022-09-21T14:21:25.077Z,69.20
2022-09-21T14:24:23.090Z,69.20
2022-09-21T14:27:19.404Z,69.30
2022-09-21T14:30:19.968Z,69.30
2022-09-21T14:33:29.534Z,69.30
2022-09-21T14:36:21.312Z,69.40
2022-09-21T14:39:18.565Z,69.50
2022-09-21T14:42:12.585Z,69.50
2022-09-21T14:45:03.832Z,69.60
2022-09-21T14:48:10.043Z,69.60
2022-09-21T14:51:07.729Z,69.60
2022-09-21T14:54:26.199Z,69.60
2022-09-21T14:57:36.666Z,69.70
2022-09-21T15:00:39.719Z,69.80
2022-09-21T15:03:52.804Z,69.90
2022-09-21T15:07:07.094Z,70.00
2022-09-21T15:10:39.738Z,69.90
2022-09-21T15:13:51.697Z,70.00
2022-09-21T15:16:47.312Z,70.10
2022-09-21T15:19:38.451Z,70.10
2022-09-21T15:22:27.751Z,70.10
2022-09-21T15:25:16.702Z,70.20
2022-09-21T15:28:04.998Z,70.20
2022-09-21T15:30:59.173Z,70.30
2022-09-21T15:33:50.552Z,70.30
2022-09-21T15:36:41.542Z,70.40
2022-09-21T15:39:31.503Z,70.40
2022-09-21T15:42:22.914Z,70.40
2022-09-21T15:45:17.400Z,70.50
2022-09-21T15:48:10.185Z,70.50
2022-09-21T15:51:04.786Z,70.60
2022-09-21T15:53:56.956Z,70.60
2022-09-21T15:56:46.096Z,70.60
2022-09-21T15:59:35.420Z,70.60
2022-09-21T16:02:26.621Z,70.60
2022-09-21T16:05:16.634Z,70.60
2022-09-21T16:08:22.677Z,70.70
2022-09-21T16:11:25.186Z,70.60
2022-09-21T16:14:33.489Z,70.70
2022-09-21T16:17:25.733Z,71.30
2022-09-21T16:20:20.377Z,70.70
2022-09-21T16:23:15.123Z,70.80
2022-09-21T16:26:03.246Z,70.80
2022-09-21T16:28:58.907Z,70.80
2022-09-21T16:31:50.496Z,70.90
2022-09-21T16:34:40.006Z,70.80
2022-09-21T16:37:30.360Z,70.90
2022-09-21T16:40:20.258Z,70.90
2022-09-21T16:43:10.894Z,71.00
2022-09-21T16:45:59.597Z,71.00
2022-09-21T16:48:48.040Z,71.00
2022-09-21T16:51:36.860Z,71.00
2022-09-21T16:54:27.335Z,71.10
2022-09-21T16:57:18.163Z,71.10
2022-09-21T17:00:11.572Z,71.70
2022-09-21T17:03:02.377Z,71.20
2022-09-21T17:05:50.641Z,71.10
2022-09-21T17:08:39.363Z,71.20
2022-09-21T17:11:28.299Z,71.30
2022-09-21T17:14:19.027Z,71.30
2022-09-21T17:17:13.741Z,71.30
2022-09-21T17:20:15.324Z,71.40
2022-09-21T17:23:04.602Z,71.40
2022-09-21T17:25:53.364Z,71.50
2022-09-21T17:28:42.642Z,71.50
2022-09-21T17:31:32.992Z,71.50
2022-09-21T17:34:22.322Z,71.50
2022-09-21T17:37:10.561Z,71.50
2022-09-21T17:39:59.419Z,71.60
2022-09-21T17:42:48.652Z,71.60
2022-09-21T17:45:42.215Z,71.70
2022-09-21T17:48:34.218Z,71.70
2022-09-21T17:51:36.950Z,71.80
2022-09-21T17:54:26.013Z,71.80
2022-09-21T17:57:30.898Z,71.80
2022-09-21T18:00:22.085Z,71.90
2022-09-21T18:03:17.635Z,71.90
2022-09-21T18:06:09.077Z,71.90
2022-09-21T18:08:58.711Z,71.90
2022-09-21T18:12:12.758Z,72.00
2022-09-21T18:15:10.207Z,72.00
2022-09-21T18:18:08.423Z,72.10
2022-09-21T18:21:03.779Z,72.10
2022-09-21T18:24:20.511Z,72.10
2022-09-21T18:27:12.286Z,72.10
2022-09-21T18:30:03.245Z,72.10
2022-09-21T18:33:02.243Z,72.20
2022-09-21T18:36:01.974Z,72.20
2022-09-21T18:39:00.853Z,72.20
2022-09-21T18:42:05.954Z,72.30
2022-09-21T18:45:00.845Z,72.30
2022-09-21T18:48:03.063Z,72.30
2022-09-21T18:50:59.882Z,72.30
2022-09-21T18:53:52.984Z,72.30
2022-09-21T18:56:41.459Z,72.40
2022-09-21T18:59:32.254Z,72.40
2022-09-21T19:02:21.807Z,72.40
2022-09-21T19:05:13.705Z,72.50
2022-09-21T19:08:10.509Z,72.40
2022-09-21T19:11:05.459Z,72.50
2022-09-21T19:14:01.978Z,72.50
2022-09-21T19:17:08.544Z,72.50
2022-09-21T19:20:24.360Z,72.50
2022-09-21T19:23:32.006Z,72.60
2022-09-21T19:26:28.651Z,72.60
2022-09-21T19:29:35.270Z,72.60
2022-09-21T19:32:35.723Z,72.60
2022-09-21T19:35:26.868Z,72.60
2022-09-21T19:38:15.824Z,72.60
2022-09-21T19:41:06.874Z,72.60
2022-09-21T19:44:01.552Z,72.70
2022-09-21T19:46:58.657Z,72.70
2022-09-21T19:49:54.501Z,72.80
2022-09-21T19:52:43.271Z,72.80
2022-09-21T19:55:50.132Z,72.80
2022-09-21T19:58:55.962Z,72.80
2022-09-21T20:01:53.047Z,72.80
2022-09-21T20:04:48.974Z,72.90
2022-09-21T20:07:45.450Z,72.90
2022-09-21T20:10:51.630Z,72.90
2022-09-21T20:14:18.618Z,73.00
2022-09-21T20:17:10.720Z,73.00
2022-09-21T20:20:08.639Z,73.10
2022-09-21T20:23:00.316Z,73.00
2022-09-21T20:25:54.070Z,73.60
2022-09-21T20:28:43.260Z,73.10
2022-09-21T20:31:31.494Z,73.10
2022-09-21T20:34:20.401Z,73.10
2022-09-21T20:37:13.549Z,73.10
2022-09-21T20:40:03.672Z,73.10
2022-09-21T20:42:52.444Z,73.20
2022-09-21T20:45:41.008Z,73.20
2022-09-21T20:48:28.977Z,73.20
2022-09-21T20:51:17.252Z,73.20
2022-09-21T20:54:06.370Z,73.30
2022-09-21T20:56:56.118Z,73.20
2022-09-21T20:59:44.765Z,73.20
2022-09-21T21:02:33.097Z,73.30
2022-09-21T21:05:22.403Z,73.30
2022-09-21T21:08:10.619Z,73.30
2022-09-21T21:11:00.415Z,73.30
2022-09-21T21:13:50.257Z,73.30
2022-09-21T21:16:38.587Z,73.40
2022-09-21T21:19:27.318Z,73.40
2022-09-21T21:22:15.736Z,73.40
2022-09-21T21:25:04.053Z,73.50
2022-09-21T21:27:53.216Z,73.50
2022-09-21T21:30:42.784Z,73.50
2022-09-21T21:33:31.390Z,73.50
2022-09-21T21:36:19.778Z,73.60
2022-09-21T21:39:08.795Z,73.60
2022-09-21T21:41:57.751Z,73.60
2022-09-21T21:44:47.172Z,73.70
2022-09-21T21:47:41.109Z,73.60
2022-09-21T21:50:29.751Z,73.60
2022-09-21T21:53:18.298Z,73.60
2022-09-21T21:56:07.764Z,73.60
2022-09-21T21:58:57.126Z,73.70
2022-09-21T22:01:45.998Z,73.70
2022-09-21T22:04:35.878Z,73.70
2022-09-21T22:07:24.461Z,74.30
2022-09-21T22:10:12.475Z,73.80
2022-09-21T22:13:01.027Z,73.70
2022-09-21T22:15:49.280Z,73.70
2022-09-21T22:18:37.931Z,73.70
2022-09-21T22:21:29.111Z,73.80
2022-09-21T22:24:17.188Z,73.80
2022-09-21T22:27:05.729Z,73.90
2022-09-21T22:29:53.973Z,73.80
2022-09-21T22:32:42.499Z,73.90
2022-09-21T22:35:30.679Z,73.80
2022-09-21T22:38:22.075Z,73.90
2022-09-21T22:41:11.444Z,73.80
2022-09-21T22:44:00.525Z,73.90
2022-09-21T22:46:49.055Z,73.90
2022-09-21T22:49:37.895Z,73.90
2022-09-21T22:52:26.331Z,74.00
2022-09-21T22:55:16.518Z,74.00
2022-09-21T22:58:05.040Z,74.00
2022-09-21T23:00:53.508Z,74.00
2022-09-21T23:03:43.200Z,74.00
2022-09-21T23:06:33.594Z,74.00
2022-09-21T23:09:22.903Z,74.00
2022-09-21T23:12:12.668Z,74.00
2022-09-21T23:15:00.956Z,74.00
2022-09-21T23:17:49.672Z,74.00
2022-09-21T23:20:38.176Z,74.00
2022-09-21T23:23:28.295Z,74.10
2022-09-21T23:26:18.059Z,74.10
2022-09-21T23:29:11.970Z,74.10
2022-09-21T23:32:00.120Z,74.10
2022-09-21T23:34:48.863Z,74.20
2022-09-21T23:37:37.121Z,74.10
2022-09-21T23:40:26.106Z,74.20
2022-09-21T23:43:14.368Z,74.20
2022-09-21T23:46:04.906Z,74.20
2022-09-21T23:48:53.648Z,74.20
2022-09-21T23:51:42.413Z,74.20
2022-09-21T23:54:30.889Z,74.20
2022-09-21T23:57:19.913Z,74.30
